createdAt,value
2022-10-19T00:00:04.739Z,18.60
2022-10-19T00:02:57.124Z,18.56
2022-10-19T00:05:31.858Z,18.54
2022-10-19T00:08:05.693Z,18.54
2022-10-19T00:10:44.132Z,18.54
2022-10-19T00:13:20.413Z,18.54
2022-10-19T00:15:54.982Z,18.59
2022-10-19T00:18:30.508Z,18.62
2022-10-19T00:21:11.504Z,18.67
2022-10-19T00:23:44.883Z,18.74
2022-10-19T00:26:17.723Z,18.77
2022-10-19T00:28:51.385Z,18.76
2022-10-19T00:31:23.891Z,18.78
2022-10-19T00:34:00.337Z,18.82
2022-10-19T00:36:34.294Z,18.81
2022-10-19T00:39:10.069Z,18.82
2022-10-19T00:41:43.075Z,18.82
2022-10-19T00:44:46.370Z,18.83
2022-10-19T00:47:19.630Z,18.85
2022-10-19T00:49:54.150Z,18.84
2022-10-19T00:52:30.086Z,18.81
2022-10-19T00:55:04.757Z,18.76
2022-10-19T00:57:36.811Z,18.68
2022-10-19T01:00:13.515Z,18.61
2022-10-19T01:02:48.930Z,18.60
2022-10-19T01:05:21.994Z,18.55
2022-10-19T01:07:55.353Z,18.53
2022-10-19T01:10:45.308Z,18.54
2022-10-19T01:13:28.938Z,18.54
2022-10-19T01:16:06.674Z,18.53
2022-10-19T01:18:45.017Z,18.54
2022-10-19T01:21:22.742Z,18.57
2022-10-19T01:24:24.242Z,18.60
2022-10-19T01:27:38.960Z,18.58
2022-10-19T01:30:15.051Z,18.47
2022-10-19T01:33:04.161Z,18.42
2022-10-19T01:35:41.771Z,18.50
2022-10-19T01:38:22.015Z,18.55
2022-10-19T01:41:05.086Z,18.59
2022-10-19T01:43:43.040Z,18.64
2022-10-19T01:46:18.412Z,18.67
2022-10-19T01:48:56.271Z,18.72
2022-10-19T01:51:31.656Z,18.67
2022-10-19T01:54:06.313Z,18.59
2022-10-19T01:56:42.251Z,18.69
2022-10-19T01:59:14.763Z,18.72
2022-10-19T02:01:47.965Z,18.74
2022-10-19T02:04:24.467Z,18.69
2022-10-19T02:06:58.613Z,18.66
2022-10-19T02:09:32.244Z,18.63
2022-10-19T02:12:07.028Z,18.55
2022-10-19T02:14:44.654Z,18.64
2022-10-19T02:17:19.971Z,18.68
2022-10-19T02:19:54.380Z,18.61
2022-10-19T02:22:27.773Z,18.61
2022-10-19T02:25:00.820Z,18.64
2022-10-19T02:27:36.332Z,18.63
2022-10-19T02:30:11.474Z,18.58
2022-10-19T02:32:44.214Z,18.60
2022-10-19T02:35:17.895Z,18.58
2022-10-19T02:37:51.019Z,18.57
2022-10-19T02:40:27.329Z,18.55
2022-10-19T02:43:02.988Z,18.57
2022-10-19T02:45:39.403Z,18.58
2022-10-19T02:48:15.077Z,18.44
2022-10-19T02:50:48.756Z,18.40
2022-10-19T02:53:49.416Z,18.50
2022-10-19T03:00:47.165Z,18.46
2022-10-19T03:03:21.432Z,18.45
2022-10-19T03:05:57.985Z,18.45
2022-10-19T03:08:33.871Z,18.43
2022-10-19T03:11:09.714Z,18.47
2022-10-19T03:13:44.037Z,18.47
2022-10-19T03:16:18.311Z,18.46
2022-10-19T03:18:52.506Z,18.42
2022-10-19T03:21:29.822Z,18.32
2022-10-19T03:24:06.148Z,18.24
2022-10-19T03:26:38.790Z,18.19
2022-10-19T03:29:13.289Z,18.14
2022-10-19T03:31:45.631Z,18.06
2022-10-19T03:34:18.521Z,18.00
2022-10-19T03:36:53.180Z,17.96
2022-10-19T03:39:25.276Z,17.89
2022-10-19T03:41:57.308Z,17.76
2022-10-19T03:44:32.038Z,17.65
2022-10-19T03:47:05.068Z,17.61
2022-10-19T03:49:39.558Z,17.44
2022-10-19T03:52:17.072Z,17.32
2022-10-19T03:54:54.647Z,17.27
2022-10-19T03:57:26.890Z,17.36
2022-10-19T04:00:04.549Z,17.27
2022-10-19T04:02:37.827Z,17.11
2022-10-19T04:05:11.959Z,17.07
2022-10-19T04:07:45.226Z,17.14
2022-10-19T04:10:18.475Z,17.16
2022-10-19T04:12:53.801Z,17.15
2022-10-19T04:15:27.613Z,17.09
2022-10-19T04:18:00.088Z,17.01
2022-10-19T04:20:35.827Z,16.84
2022-10-19T04:23:09.039Z,16.74
2022-10-19T04:25:41.828Z,16.73
2022-10-19T04:28:14.817Z,16.84
2022-10-19T04:30:47.127Z,16.93
2022-10-19T04:33:18.929Z,16.95
2022-10-19T04:35:50.864Z,16.95
2022-10-19T04:38:22.559Z,17.00
2022-10-19T04:40:55.588Z,17.02
2022-10-19T04:43:28.589Z,17.00
2022-10-19T04:46:05.882Z,16.99
2022-10-19T04:48:40.023Z,16.99
2022-10-19T04:51:15.182Z,16.96
2022-10-19T04:53:49.557Z,16.93
2022-10-19T04:56:26.309Z,16.85
2022-10-19T04:59:00.300Z,16.77
2022-10-19T05:01:33.243Z,16.68
2022-10-19T05:04:08.461Z,16.61
2022-10-19T05:06:42.000Z,16.53
2022-10-19T05:09:13.992Z,16.47
2022-10-19T05:11:47.925Z,16.43
2022-10-19T05:14:24.218Z,16.37
2022-10-19T05:16:56.230Z,16.33
2022-10-19T05:19:29.998Z,16.30
2022-10-19T05:22:03.368Z,16.27
2022-10-19T05:24:37.264Z,16.24
2022-10-19T05:27:09.410Z,16.21
2022-10-19T05:29:42.258Z,16.18
2022-10-19T05:32:19.506Z,16.13
2022-10-19T05:34:52.736Z,16.14
2022-10-19T05:37:25.864Z,16.12
2022-10-19T05:39:59.020Z,16.16
2022-10-19T05:42:31.141Z,16.17
2022-10-19T05:45:05.986Z,16.23
2022-10-19T05:47:41.087Z,16.29
2022-10-19T05:50:19.508Z,16.33
2022-10-19T05:52:52.389Z,16.39
2022-10-19T05:55:26.507Z,16.47
2022-10-19T05:57:59.635Z,16.50
2022-10-19T06:00:34.041Z,16.47
2022-10-19T06:03:08.832Z,16.39
2022-10-19T06:05:41.626Z,16.55
2022-10-19T06:08:14.200Z,16.70
2022-10-19T06:10:48.302Z,16.75
2022-10-19T06:13:24.412Z,16.80
2022-10-19T06:15:57.945Z,16.76
2022-10-19T06:18:32.320Z,16.75
2022-10-19T06:21:07.658Z,16.80
2022-10-19T06:26:20.793Z,16.89
2022-10-19T06:28:54.106Z,16.94
2022-10-19T06:31:27.255Z,16.95
2022-10-19T06:34:04.241Z,16.99
2022-10-19T06:36:39.019Z,17.07
2022-10-19T06:39:11.039Z,17.17
2022-10-19T06:41:45.373Z,17.26
2022-10-19T06:44:19.091Z,17.33
2022-10-19T06:46:51.687Z,17.43
2022-10-19T06:49:24.092Z,17.49
2022-10-19T06:51:56.785Z,17.55
2022-10-19T06:54:30.904Z,17.60
2022-10-19T06:57:03.527Z,17.61
2022-10-19T06:59:36.136Z,17.61
2022-10-19T07:02:10.983Z,17.60
2022-10-19T07:04:42.755Z,17.63
2022-10-19T07:07:15.359Z,17.69
2022-10-19T07:09:48.075Z,17.67
2022-10-19T07:12:22.054Z,17.64
2022-10-19T07:14:59.647Z,17.62
2022-10-19T07:17:33.308Z,17.66
2022-10-19T07:20:08.340Z,17.71
2022-10-19T07:22:41.474Z,17.73
2022-10-19T07:25:16.762Z,17.70
2022-10-19T07:27:49.199Z,17.70
2022-10-19T07:30:23.674Z,17.67
2022-10-19T07:32:56.666Z,17.63
2022-10-19T07:35:31.604Z,17.67
2022-10-19T07:38:04.463Z,17.70
2022-10-19T07:40:36.865Z,17.76
2022-10-19T07:43:11.345Z,17.83
2022-10-19T07:45:44.694Z,17.85
2022-10-19T07:48:17.357Z,17.93
2022-10-19T07:50:51.905Z,18.08
2022-10-19T07:53:25.130Z,18.26
2022-10-19T07:55:57.945Z,18.35
2022-10-19T07:58:32.712Z,18.34
2022-10-19T08:01:07.300Z,18.26
2022-10-19T08:04:31.818Z,18.22
2022-10-19T08:06:36.767Z,18.21
2022-10-19T08:09:09.101Z,18.15
2022-10-19T08:11:41.609Z,18.08
2022-10-19T08:14:14.140Z,18.07
2022-10-19T08:16:49.986Z,18.09
2022-10-19T08:19:24.569Z,18.10
2022-10-19T08:21:57.391Z,18.13
2022-10-19T08:24:29.901Z,18.09
2022-10-19T08:27:05.693Z,18.10
2022-10-19T08:29:40.212Z,18.16
2022-10-19T08:32:16.168Z,18.15
2022-10-19T08:34:48.095Z,18.12
2022-10-19T08:37:43.775Z,18.09
2022-10-19T08:40:22.452Z,18.04
2022-10-19T08:42:58.835Z,18.14
2022-10-19T08:45:42.890Z,18.37
2022-10-19T08:48:28.978Z,18.36
2022-10-19T08:51:03.310Z,18.35
2022-10-19T08:53:41.072Z,18.30
2022-10-19T08:56:45.819Z,18.29
2022-10-19T08:59:19.381Z,18.36
2022-10-19T09:01:55.123Z,18.43
2022-10-19T09:04:30.466Z,18.45
2022-10-19T09:07:21.188Z,18.39
2022-10-19T09:09:59.652Z,18.35
2022-10-19T09:12:41.500Z,18.34
2022-10-19T09:15:17.263Z,18.36
2022-10-19T09:17:50.266Z,18.44
2022-10-19T09:20:27.106Z,18.46
2022-10-19T09:23:11.111Z,18.47
2022-10-19T09:25:46.842Z,18.57
2022-10-19T09:28:36.659Z,18.56
2022-10-19T09:31:17.341Z,18.56
2022-10-19T09:33:55.923Z,18.56
2022-10-19T09:36:56.612Z,18.64
2022-10-19T09:39:32.154Z,18.77
2022-10-19T09:42:09.397Z,18.79
2022-10-19T09:44:45.194Z,18.73
2022-10-19T09:47:30.891Z,18.73
2022-10-19T09:50:19.654Z,18.66
2022-10-19T09:52:52.978Z,18.55
2022-10-19T09:55:30.763Z,18.48
2022-10-19T09:58:06.127Z,18.35
2022-10-19T10:00:42.465Z,18.24
2022-10-19T10:03:27.283Z,18.15
2022-10-19T10:06:03.578Z,18.15
2022-10-19T10:08:37.953Z,18.16
2022-10-19T10:11:14.631Z,18.11
2022-10-19T10:13:52.449Z,18.02
2022-10-19T10:16:25.869Z,18.02
2022-10-19T10:19:01.687Z,18.10
2022-10-19T10:21:37.097Z,18.25
2022-10-19T10:24:20.834Z,18.43
2022-10-19T10:26:57.101Z,18.54
2022-10-19T10:29:35.351Z,18.62
2022-10-19T10:32:13.473Z,18.59
2022-10-19T10:34:53.823Z,18.57
2022-10-19T10:37:38.469Z,18.49
2022-10-19T10:40:23.826Z,18.32
2022-10-19T10:42:58.160Z,18.14
2022-10-19T10:45:35.320Z,18.07
2022-10-19T10:48:27.256Z,17.98
2022-10-19T10:51:00.612Z,17.92
2022-10-19T10:53:38.861Z,17.91
2022-10-19T10:56:26.571Z,18.03
2022-10-19T10:59:04.314Z,18.18
2022-10-19T11:01:41.530Z,18.33
2022-10-19T11:04:18.352Z,18.40
2022-10-19T11:06:54.965Z,18.45
2022-10-19T11:09:31.334Z,18.53
2022-10-19T11:12:06.787Z,18.55
2022-10-19T11:14:47.588Z,18.57
2022-10-19T11:17:22.980Z,18.61
2022-10-19T11:19:56.836Z,18.66
2022-10-19T11:22:33.772Z,18.80
2022-10-19T11:25:21.274Z,18.91
2022-10-19T11:28:02.616Z,18.91
2022-10-19T11:30:41.570Z,18.93
2022-10-19T11:33:21.905Z,18.98
2022-10-19T11:35:55.088Z,18.98
2022-10-19T11:38:35.538Z,18.85
2022-10-19T11:41:19.471Z,18.71
2022-10-19T11:44:03.904Z,18.61
2022-10-19T11:46:40.342Z,18.46
2022-10-19T11:49:23.315Z,18.35
2022-10-19T11:52:02.955Z,18.29
2022-10-19T11:54:46.336Z,18.29
2022-10-19T11:57:21.636Z,18.26
2022-10-19T12:00:33.887Z,18.24
2022-10-19T12:03:16.675Z,18.31
2022-10-19T12:06:01.043Z,18.38
2022-10-19T12:08:56.978Z,18.59
2022-10-19T12:11:42.619Z,18.76
2022-10-19T12:14:18.183Z,18.90
2022-10-19T12:16:57.991Z,19.03
2022-10-19T12:19:34.970Z,19.08
2022-10-19T12:22:13.060Z,19.03
2022-10-19T12:24:46.591Z,18.92
2022-10-19T12:27:21.790Z,18.85
2022-10-19T12:29:55.793Z,18.77
2022-10-19T12:32:28.293Z,18.59
2022-10-19T12:35:07.059Z,18.52
2022-10-19T12:37:46.959Z,18.36
2022-10-19T12:40:27.101Z,18.28
2022-10-19T12:43:05.023Z,18.33
2022-10-19T12:45:38.784Z,18.34
2022-10-19T12:48:25.849Z,18.25
2022-10-19T12:51:12.306Z,18.19
2022-10-19T12:53:47.747Z,18.22
2022-10-19T12:56:22.686Z,18.25
2022-10-19T12:58:59.802Z,18.29
2022-10-19T13:01:44.468Z,18.33
2022-10-19T13:04:19.995Z,18.43
2022-10-19T13:07:00.452Z,18.58
2022-10-19T13:09:34.936Z,18.66
2022-10-19T13:12:47.284Z,18.66
2022-10-19T13:15:58.801Z,18.67
2022-10-19T13:19:09.275Z,18.70
2022-10-19T13:22:13.846Z,18.65
2022-10-19T13:25:34.100Z,18.58
2022-10-19T13:28:42.506Z,18.52
2022-10-19T13:31:33.419Z,18.41
2022-10-19T13:34:13.515Z,18.37
2022-10-19T13:37:02.345Z,18.39
2022-10-19T13:39:40.759Z,18.37
2022-10-19T13:42:26.678Z,18.32
2022-10-19T13:44:59.210Z,18.33
2022-10-19T13:47:39.333Z,18.34
2022-10-19T13:50:29.791Z,18.43
2022-10-19T13:53:29.680Z,18.46
2022-10-19T13:59:51.976Z,18.44
2022-10-19T14:02:42.315Z,18.27
2022-10-19T14:05:33.946Z,18.21
2022-10-19T14:08:15.150Z,18.16
2022-10-19T14:11:00.751Z,18.16
2022-10-19T14:13:34.917Z,18.10
2022-10-19T14:16:21.461Z,18.05
2022-10-19T14:18:58.473Z,17.98
2022-10-19T14:21:37.018Z,17.93
2022-10-19T14:24:22.547Z,17.91
2022-10-19T14:26:57.875Z,17.77
2022-10-19T14:29:31.134Z,17.64
2022-10-19T14:32:06.295Z,17.49
2022-10-19T14:34:44.278Z,17.46
2022-10-19T14:37:22.437Z,17.37
2022-10-19T14:40:08.914Z,17.34
2022-10-19T14:42:46.457Z,17.31
2022-10-19T14:45:22.166Z,17.30
2022-10-19T14:48:08.267Z,17.26
2022-10-19T14:50:46.794Z,17.21
2022-10-19T14:53:36.847Z,17.12
2022-10-19T14:56:12.665Z,17.10
2022-10-19T14:58:49.390Z,17.15
2022-10-19T15:01:23.076Z,17.14
2022-10-19T15:03:56.255Z,17.15
2022-10-19T15:06:30.165Z,17.11
2022-10-19T15:09:07.363Z,17.12
2022-10-19T15:11:49.919Z,17.08
2022-10-19T15:14:25.899Z,17.08
2022-10-19T15:17:03.047Z,17.02
2022-10-19T15:19:41.077Z,16.95
2022-10-19T15:22:18.809Z,16.81
2022-10-19T15:25:20.731Z,16.76
2022-10-19T15:27:54.549Z,16.68
2022-10-19T15:30:29.888Z,16.53
2022-10-19T15:33:16.120Z,16.38
2022-10-19T15:35:51.111Z,16.35
2022-10-19T15:38:26.321Z,16.36
2022-10-19T15:41:01.302Z,16.31
2022-10-19T15:43:52.270Z,16.27
2022-10-19T15:46:28.382Z,16.30
2022-10-19T15:49:04.611Z,16.30
2022-10-19T15:51:39.240Z,16.25
2022-10-19T15:54:11.918Z,16.24
2022-10-19T15:56:47.102Z,16.24
2022-10-19T15:59:21.072Z,16.24
2022-10-19T16:01:56.342Z,16.23
2022-10-19T16:04:29.280Z,16.21
2022-10-19T16:07:01.067Z,16.24
2022-10-19T16:09:34.849Z,16.20
2022-10-19T16:12:07.789Z,16.17
2022-10-19T16:14:40.298Z,16.11
2022-10-19T16:17:15.007Z,16.13
2022-10-19T16:19:48.576Z,16.13
2022-10-19T16:22:23.123Z,16.17
2022-10-19T16:24:55.467Z,16.18
2022-10-19T16:27:28.691Z,16.18
2022-10-19T16:30:04.488Z,16.20
2022-10-19T16:32:37.771Z,16.24
2022-10-19T16:35:16.607Z,16.23
2022-10-19T16:37:48.423Z,16.21
2022-10-19T16:40:23.279Z,16.16
2022-10-19T16:42:58.847Z,16.06
2022-10-19T16:45:32.954Z,16.03
2022-10-19T16:48:06.558Z,16.02
2022-10-19T16:50:39.264Z,16.14
2022-10-19T16:53:13.099Z,16.23
2022-10-19T16:55:46.380Z,16.16
2022-10-19T16:58:18.678Z,16.13
2022-10-19T17:00:51.523Z,15.99
2022-10-19T17:03:24.711Z,15.99
2022-10-19T17:05:57.507Z,16.00
2022-10-19T17:08:36.843Z,16.15
2022-10-19T17:11:19.733Z,16.27
2022-10-19T17:13:56.047Z,16.25
2022-10-19T17:16:30.663Z,16.28
2022-10-19T17:19:05.954Z,16.30
2022-10-19T17:21:40.227Z,16.28
2022-10-19T17:24:21.672Z,16.23
2022-10-19T17:26:56.236Z,16.26
2022-10-19T17:29:32.535Z,16.23
2022-10-19T17:32:07.418Z,16.13
2022-10-19T17:34:41.484Z,16.10
2022-10-19T17:37:15.250Z,16.15
2022-10-19T17:39:51.478Z,16.17
2022-10-19T17:42:24.165Z,16.14
2022-10-19T17:44:59.807Z,16.13
2022-10-19T17:47:32.515Z,16.18
2022-10-19T17:50:06.296Z,16.21
2022-10-19T17:52:39.269Z,16.18
2022-10-19T17:55:13.091Z,16.15
2022-10-19T17:57:48.209Z,16.15
2022-10-19T18:00:21.682Z,16.10
2022-10-19T18:02:54.583Z,16.11
2022-10-19T18:05:28.205Z,16.07
2022-10-19T18:08:00.419Z,16.10
2022-10-19T18:10:35.785Z,16.13
2022-10-19T18:13:09.769Z,16.11
2022-10-19T18:15:42.336Z,16.07
2022-10-19T18:18:14.783Z,15.96
2022-10-19T18:20:46.993Z,15.88
2022-10-19T18:23:20.560Z,16.07
2022-10-19T18:25:55.392Z,16.05
2022-10-19T18:28:28.933Z,16.05
2022-10-19T18:31:08.346Z,16.01
2022-10-19T18:33:42.058Z,15.95
2022-10-19T18:36:15.274Z,15.92
2022-10-19T18:38:52.002Z,15.84
2022-10-19T18:41:26.140Z,15.80
2022-10-19T18:44:01.453Z,15.76
2022-10-19T18:46:38.808Z,15.71
2022-10-19T18:49:12.862Z,15.70
2022-10-19T18:51:50.746Z,15.67
2022-10-19T18:54:29.031Z,15.64
2022-10-19T18:57:04.057Z,15.61
2022-10-19T18:59:37.507Z,15.59
2022-10-19T19:02:17.114Z,15.57
2022-10-19T19:04:57.440Z,15.59
2022-10-19T19:07:30.219Z,15.58
2022-10-19T19:10:04.104Z,15.53
2022-10-19T19:12:39.276Z,15.46
2022-10-19T19:15:13.095Z,15.45
2022-10-19T19:17:46.243Z,15.47
2022-10-19T19:20:18.708Z,15.48
2022-10-19T19:22:51.037Z,15.47
2022-10-19T19:25:25.006Z,15.43
2022-10-19T19:27:56.862Z,15.42
2022-10-19T19:30:32.514Z,15.41
2022-10-19T19:33:05.965Z,15.44
2022-10-19T19:35:49.326Z,15.40
2022-10-19T19:38:21.645Z,15.31
2022-10-19T19:40:57.211Z,15.26
2022-10-19T19:43:29.431Z,15.16
2022-10-19T19:46:07.881Z,15.07
2022-10-19T19:48:44.063Z,14.95
2022-10-19T19:51:23.935Z,14.87
2022-10-19T19:53:57.168Z,14.81
2022-10-19T19:56:34.793Z,14.74
2022-10-19T19:59:07.131Z,14.66
2022-10-19T20:01:40.528Z,14.44
2022-10-19T20:04:14.160Z,14.33
2022-10-19T20:06:46.503Z,14.35
2022-10-19T20:09:18.947Z,14.48
2022-10-19T20:11:51.745Z,14.48
2022-10-19T20:14:25.746Z,14.41
2022-10-19T20:17:01.380Z,14.32
2022-10-19T20:19:36.994Z,14.24
2022-10-19T20:22:09.831Z,14.16
2022-10-19T20:24:43.338Z,14.11
2022-10-19T20:27:18.487Z,14.07
2022-10-19T20:29:59.280Z,14.02
2022-10-19T20:32:34.334Z,13.99
2022-10-19T20:35:08.598Z,13.94
2022-10-19T20:37:41.226Z,13.88
2022-10-19T20:40:16.950Z,13.83
2022-10-19T20:42:51.539Z,13.79
2022-10-19T20:45:25.898Z,13.73
2022-10-19T20:47:58.869Z,13.69
2022-10-19T20:50:32.439Z,13.65
2022-10-19T20:53:07.141Z,13.64
2022-10-19T20:55:40.451Z,13.62
2022-10-19T20:58:13.733Z,13.63
2022-10-19T21:00:47.164Z,13.58
2022-10-19T21:03:22.354Z,13.52
2022-10-19T21:05:55.048Z,13.55
2022-10-19T21:08:29.593Z,13.56
2022-10-19T21:11:05.792Z,13.31
2022-10-19T21:13:38.417Z,13.20
2022-10-19T21:16:17.662Z,13.10
2022-10-19T21:18:50.968Z,13.01
2022-10-19T21:21:27.211Z,12.94
2022-10-19T21:24:04.339Z,12.85
2022-10-19T21:26:38.189Z,12.80
2022-10-19T21:29:11.424Z,12.83
2022-10-19T21:31:47.933Z,12.90
2022-10-19T21:34:23.203Z,12.97
2022-10-19T21:36:56.122Z,13.00
2022-10-19T21:39:28.874Z,12.97
2022-10-19T21:42:00.795Z,12.98
2022-10-19T21:44:34.501Z,12.96
2022-10-19T21:47:07.073Z,12.91
2022-10-19T21:49:43.089Z,12.88
2022-10-19T21:52:16.259Z,12.85
2022-10-19T21:54:48.208Z,12.81
2022-10-19T21:57:24.177Z,12.73
2022-10-19T21:59:56.879Z,12.65
2022-10-19T22:02:29.422Z,12.58
2022-10-19T22:05:03.339Z,12.54
2022-10-19T22:07:37.921Z,12.45
2022-10-19T22:10:11.632Z,12.38
2022-10-19T22:12:44.115Z,12.33
2022-10-19T22:15:17.335Z,12.28
2022-10-19T22:17:50.877Z,12.24
2022-10-19T22:20:23.921Z,12.21
2022-10-19T22:22:55.720Z,12.18
2022-10-19T22:25:30.216Z,12.22
2022-10-19T22:28:04.305Z,12.21
2022-10-19T22:33:10.559Z,12.17
2022-10-19T22:35:43.220Z,12.14
2022-10-19T22:38:15.764Z,12.11
2022-10-19T22:40:48.535Z,12.07
2022-10-19T22:43:21.229Z,12.04
2022-10-19T22:45:53.528Z,11.99
2022-10-19T22:48:25.658Z,11.94
2022-10-19T22:51:00.198Z,11.85
2022-10-19T22:53:35.298Z,11.78
2022-10-19T22:56:08.892Z,11.74
2022-10-19T22:58:42.395Z,11.73
2022-10-19T23:01:18.006Z,11.69
2022-10-19T23:03:50.549Z,11.65
2022-10-19T23:06:24.221Z,11.65
2022-10-19T23:08:59.730Z,11.59
2022-10-19T23:11:38.795Z,11.55
2022-10-19T23:14:11.920Z,11.39
2022-10-19T23:16:45.152Z,11.28
2022-10-19T23:19:18.291Z,11.22
2022-10-19T23:21:50.769Z,11.21
2022-10-19T23:24:24.931Z,11.17
2022-10-19T23:26:57.126Z,11.17
2022-10-19T23:29:30.168Z,11.19
2022-10-19T23:32:04.287Z,11.17
2022-10-19T23:34:36.658Z,11.15
2022-10-19T23:37:11.366Z,11.18
2022-10-19T23:39:43.825Z,11.11
2022-10-19T23:42:17.438Z,11.16
2022-10-19T23:44:52.544Z,11.17
2022-10-19T23:47:26.066Z,11.13
2022-10-19T23:50:00.549Z,11.17
2022-10-19T23:52:33.456Z,11.13
2022-10-19T23:55:07.508Z,11.08
2022-10-19T23:57:42.334Z,11.10
